sensor_id;sensor_type;location;lat;lon;timestamp;P1;durP1;ratioP1;P2;durP2;ratioP2
64110;SDS011;50401;48.188;11.566;2023-04-29T00:01:50;3.55;;;1.15;;
64110;SDS011;50401;48.188;11.566;2023-04-29T00:04:15;3.10;;;1.50;;
64110;SDS011;50401;48.188;11.566;2023-04-29T00:06:41;1.23;;;0.85;;
64110;SDS011;50401;48.188;11.566;2023-04-29T00:09:06;4.30;;;1.30;;
64110;SDS011;50401;48.188;11.566;2023-04-29T00:11:32;2.20;;;1.40;;
64110;SDS011;50401;48.188;11.566;2023-04-29T00:13:58;1.30;;;1.00;;
64110;SDS011;50401;48.188;11.566;2023-04-29T00:16:23;1.33;;;1.05;;
64110;SDS011;50401;48.188;11.566;2023-04-29T00:18:49;2.70;;;1.15;;
64110;SDS011;50401;48.188;11.566;2023-04-29T00:21:14;3.45;;;1.08;;
64110;SDS011;50401;48.188;11.566;2023-04-29T00:23:40;2.33;;;1.10;;
64110;SDS011;50401;48.188;11.566;2023-04-29T00:26:05;3.30;;;1.30;;
64110;SDS011;50401;48.188;11.566;2023-04-29T00:28:31;3.75;;;1.50;;
64110;SDS011;50401;48.188;11.566;2023-04-29T00:30:57;3.97;;;1.40;;
64110;SDS011;50401;48.188;11.566;2023-04-29T00:33:22;2.97;;;1.50;;
64110;SDS011;50401;48.188;11.566;2023-04-29T00:35:48;2.05;;;1.27;;
64110;SDS011;50401;48.188;11.566;2023-04-29T00:38:13;3.60;;;2.08;;
64110;SDS011;50401;48.188;11.566;2023-04-29T00:40:38;1.20;;;1.10;;
64110;SDS011;50401;48.188;11.566;2023-04-29T00:43:04;3.83;;;1.55;;
64110;SDS011;50401;48.188;11.566;2023-04-29T00:45:29;1.80;;;1.30;;
64110;SDS011;50401;48.188;11.566;2023-04-29T00:47:55;2.80;;;1.25;;
64110;SDS011;50401;48.188;11.566;2023-04-29T00:50:21;3.03;;;1.50;;
64110;SDS011;50401;48.188;11.566;2023-04-29T00:52:46;4.82;;;1.73;;
64110;SDS011;50401;48.188;11.566;2023-04-29T00:55:13;2.75;;;1.50;;
64110;SDS011;50401;48.188;11.566;2023-04-29T00:57:38;2.80;;;1.60;;
64110;SDS011;50401;48.188;11.566;2023-04-29T01:00:07;3.15;;;1.75;;
64110;SDS011;50401;48.188;11.566;2023-04-29T01:02:34;2.72;;;1.80;;
64110;SDS011;50401;48.188;11.566;2023-04-29T01:04:59;2.47;;;1.80;;
64110;SDS011;50401;48.188;11.566;2023-04-29T01:07:29;5.63;;;2.55;;
64110;SDS011;50401;48.188;11.566;2023-04-29T01:10:14;9.85;;;1.83;;
64110;SDS011;50401;48.188;11.566;2023-04-29T01:12:50;10.63;;;1.83;;
64110;SDS011;50401;48.188;11.566;2023-04-29T01:15:33;6.03;;;1.67;;
64110;SDS011;50401;48.188;11.566;2023-04-29T01:18:14;2.35;;;1.58;;
64110;SDS011;50401;48.188;11.566;2023-04-29T01:20:44;3.45;;;1.52;;
64110;SDS011;50401;48.188;11.566;2023-04-29T01:23:10;4.38;;;1.60;;
64110;SDS011;50401;48.188;11.566;2023-04-29T01:25:36;2.95;;;1.92;;
64110;SDS011;50401;48.188;11.566;2023-04-29T01:30:44;5.78;;;1.80;;
64110;SDS011;50401;48.188;11.566;2023-04-29T01:38:56;2.50;;;1.58;;
64110;SDS011;50401;48.188;11.566;2023-04-29T01:41:34;3.30;;;1.60;;
64110;SDS011;50401;48.188;11.566;2023-04-29T01:44:07;3.83;;;1.90;;
64110;SDS011;50401;48.188;11.566;2023-04-29T01:46:40;2.03;;;1.58;;
64110;SDS011;50401;48.188;11.566;2023-04-29T01:49:07;4.40;;;1.70;;
64110;SDS011;50401;48.188;11.566;2023-04-29T01:51:33;2.45;;;1.60;;
64110;SDS011;50401;48.188;11.566;2023-04-29T01:53:59;2.20;;;1.50;;
64110;SDS011;50401;48.188;11.566;2023-04-29T01:56:24;3.80;;;2.00;;
64110;SDS011;50401;48.188;11.566;2023-04-29T01:58:49;2.30;;;1.60;;
64110;SDS011;50401;48.188;11.566;2023-04-29T02:01:15;3.63;;;1.40;;
64110;SDS011;50401;48.188;11.566;2023-04-29T02:03:40;1.70;;;1.60;;
64110;SDS011;50401;48.188;11.566;2023-04-29T02:06:05;2.97;;;1.48;;
64110;SDS011;50401;48.188;11.566;2023-04-29T02:08:31;1.05;;;1.00;;
64110;SDS011;50401;48.188;11.566;2023-04-29T02:10:57;1.30;;;1.20;;
64110;SDS011;50401;48.188;11.566;2023-04-29T02:13:23;1.58;;;1.17;;
64110;SDS011;50401;48.188;11.566;2023-04-29T02:15:49;2.00;;;1.13;;
64110;SDS011;50401;48.188;11.566;2023-04-29T02:18:14;2.85;;;1.20;;
64110;SDS011;50401;48.188;11.566;2023-04-29T02:20:40;3.33;;;1.30;;
64110;SDS011;50401;48.188;11.566;2023-04-29T02:23:06;2.10;;;1.10;;
64110;SDS011;50401;48.188;11.566;2023-04-29T02:25:31;1.20;;;1.10;;
64110;SDS011;50401;48.188;11.566;2023-04-29T02:27:56;1.40;;;0.90;;
64110;SDS011;50401;48.188;11.566;2023-04-29T02:30:22;1.50;;;1.38;;
64110;SDS011;50401;48.188;11.566;2023-04-29T02:32:47;4.40;;;1.30;;
64110;SDS011;50401;48.188;11.566;2023-04-29T02:35:13;1.33;;;1.20;;
64110;SDS011;50401;48.188;11.566;2023-04-29T02:37:38;1.35;;;1.20;;
64110;SDS011;50401;48.188;11.566;2023-04-29T02:40:03;2.05;;;1.50;;
64110;SDS011;50401;48.188;11.566;2023-04-29T02:42:30;2.33;;;1.30;;
64110;SDS011;50401;48.188;11.566;2023-04-29T02:44:55;2.42;;;1.40;;
64110;SDS011;50401;48.188;11.566;2023-04-29T02:47:21;1.40;;;1.30;;
64110;SDS011;50401;48.188;11.566;2023-04-29T02:49:46;1.30;;;1.20;;
64110;SDS011;50401;48.188;11.566;2023-04-29T02:52:11;2.50;;;1.42;;
64110;SDS011;50401;48.188;11.566;2023-04-29T02:54:37;2.72;;;1.90;;
64110;SDS011;50401;48.188;11.566;2023-04-29T02:57:02;3.88;;;1.70;;
64110;SDS011;50401;48.188;11.566;2023-04-29T02:59:28;3.47;;;1.80;;
64110;SDS011;50401;48.188;11.566;2023-04-29T03:01:53;3.88;;;1.70;;
64110;SDS011;50401;48.188;11.566;2023-04-29T03:04:19;1.35;;;1.25;;
64110;SDS011;50401;48.188;11.566;2023-04-29T03:06:44;3.17;;;2.22;;
64110;SDS011;50401;48.188;11.566;2023-04-29T03:09:10;2.63;;;1.80;;
64110;SDS011;50401;48.188;11.566;2023-04-29T03:11:37;3.00;;;1.95;;
64110;SDS011;50401;48.188;11.566;2023-04-29T03:14:02;1.63;;;1.30;;
64110;SDS011;50401;48.188;11.566;2023-04-29T03:16:28;1.95;;;1.70;;
64110;SDS011;50401;48.188;11.566;2023-04-29T03:18:54;3.63;;;1.77;;
64110;SDS011;50401;48.188;11.566;2023-04-29T03:21:19;8.23;;;5.28;;
64110;SDS011;50401;48.188;11.566;2023-04-29T03:23:44;8.52;;;2.03;;
64110;SDS011;50401;48.188;11.566;2023-04-29T03:26:10;2.72;;;1.98;;
64110;SDS011;50401;48.188;11.566;2023-04-29T03:28:36;4.97;;;2.60;;
64110;SDS011;50401;48.188;11.566;2023-04-29T03:31:01;3.28;;;1.92;;
64110;SDS011;50401;48.188;11.566;2023-04-29T03:33:27;3.30;;;1.88;;
64110;SDS011;50401;48.188;11.566;2023-04-29T03:35:52;2.78;;;1.85;;
64110;SDS011;50401;48.188;11.566;2023-04-29T03:38:18;2.78;;;1.70;;
64110;SDS011;50401;48.188;11.566;2023-04-29T03:40:43;3.13;;;1.55;;
64110;SDS011;50401;48.188;11.566;2023-04-29T03:43:09;4.13;;;1.75;;
64110;SDS011;50401;48.188;11.566;2023-04-29T03:45:35;3.25;;;1.60;;
64110;SDS011;50401;48.188;11.566;2023-04-29T03:48:01;4.25;;;2.10;;
64110;SDS011;50401;48.188;11.566;2023-04-29T03:50:27;8.10;;;1.88;;
64110;SDS011;50401;48.188;11.566;2023-04-29T03:52:53;2.58;;;1.63;;
64110;SDS011;50401;48.188;11.566;2023-04-29T03:55:18;5.78;;;2.00;;
64110;SDS011;50401;48.188;11.566;2023-04-29T03:57:44;6.43;;;3.15;;
64110;SDS011;50401;48.188;11.566;2023-04-29T04:00:09;3.90;;;2.92;;
64110;SDS011;50401;48.188;11.566;2023-04-29T04:02:35;3.50;;;2.33;;
64110;SDS011;50401;48.188;11.566;2023-04-29T04:05:00;3.60;;;2.30;;
64110;SDS011;50401;48.188;11.566;2023-04-29T04:07:26;2.90;;;2.25;;
64110;SDS011;50401;48.188;11.566;2023-04-29T04:09:51;2.70;;;2.10;;
64110;SDS011;50401;48.188;11.566;2023-04-29T04:12:17;1.77;;;1.67;;
64110;SDS011;50401;48.188;11.566;2023-04-29T04:14:42;2.35;;;1.83;;
64110;SDS011;50401;48.188;11.566;2023-04-29T04:17:08;2.50;;;2.00;;
64110;SDS011;50401;48.188;11.566;2023-04-29T04:19:33;3.17;;;2.30;;
64110;SDS011;50401;48.188;11.566;2023-04-29T04:21:58;5.18;;;2.28;;
64110;SDS011;50401;48.188;11.566;2023-04-29T04:24:24;3.25;;;1.60;;
64110;SDS011;50401;48.188;11.566;2023-04-29T04:26:49;3.78;;;2.50;;
64110;SDS011;50401;48.188;11.566;2023-04-29T04:29:15;1.95;;;1.75;;
64110;SDS011;50401;48.188;11.566;2023-04-29T04:31:40;2.15;;;1.73;;
64110;SDS011;50401;48.188;11.566;2023-04-29T04:34:06;2.35;;;1.92;;
64110;SDS011;50401;48.188;11.566;2023-04-29T04:36:31;3.42;;;1.90;;
64110;SDS011;50401;48.188;11.566;2023-04-29T04:38:57;2.03;;;1.83;;
64110;SDS011;50401;48.188;11.566;2023-04-29T04:41:22;2.47;;;2.28;;
64110;SDS011;50401;48.188;11.566;2023-04-29T04:43:48;2.95;;;2.33;;
64110;SDS011;50401;48.188;11.566;2023-04-29T04:46:14;3.47;;;2.38;;
64110;SDS011;50401;48.188;11.566;2023-04-29T04:48:41;3.53;;;1.92;;
64110;SDS011;50401;48.188;11.566;2023-04-29T04:51:10;2.33;;;1.85;;
64110;SDS011;50401;48.188;11.566;2023-04-29T04:53:37;2.88;;;2.00;;
64110;SDS011;50401;48.188;11.566;2023-04-29T04:56:03;3.72;;;2.10;;
64110;SDS011;50401;48.188;11.566;2023-04-29T04:58:29;3.05;;;2.00;;
64110;SDS011;50401;48.188;11.566;2023-04-29T05:00:56;4.30;;;1.83;;
64110;SDS011;50401;48.188;11.566;2023-04-29T05:03:21;7.57;;;2.42;;
64110;SDS011;50401;48.188;11.566;2023-04-29T05:05:52;4.90;;;2.15;;
64110;SDS011;50401;48.188;11.566;2023-04-29T05:08:26;3.03;;;2.42;;
64110;SDS011;50401;48.188;11.566;2023-04-29T05:10:52;3.50;;;2.20;;
64110;SDS011;50401;48.188;11.566;2023-04-29T05:13:17;2.75;;;2.42;;
64110;SDS011;50401;48.188;11.566;2023-04-29T05:15:43;3.78;;;2.80;;
64110;SDS011;50401;48.188;11.566;2023-04-29T05:18:09;5.88;;;3.67;;
64110;SDS011;50401;48.188;11.566;2023-04-29T05:20:35;6.57;;;2.85;;
64110;SDS011;50401;48.188;11.566;2023-04-29T05:23:01;6.82;;;3.00;;
64110;SDS011;50401;48.188;11.566;2023-04-29T05:25:27;4.68;;;2.35;;
64110;SDS011;50401;48.188;11.566;2023-04-29T05:27:53;4.28;;;2.42;;
64110;SDS011;50401;48.188;11.566;2023-04-29T05:30:19;4.38;;;2.67;;
64110;SDS011;50401;48.188;11.566;2023-04-29T05:32:45;4.85;;;2.15;;
64110;SDS011;50401;48.188;11.566;2023-04-29T05:35:10;1.50;;;1.40;;
64110;SDS011;50401;48.188;11.566;2023-04-29T05:37:36;2.47;;;1.60;;
64110;SDS011;50401;48.188;11.566;2023-04-29T05:40:01;3.50;;;2.90;;
64110;SDS011;50401;48.188;11.566;2023-04-29T05:42:28;7.43;;;4.68;;
64110;SDS011;50401;48.188;11.566;2023-04-29T05:44:53;10.25;;;6.03;;
64110;SDS011;50401;48.188;11.566;2023-04-29T05:47:19;3.28;;;2.10;;
64110;SDS011;50401;48.188;11.566;2023-04-29T05:49:44;2.28;;;2.03;;
64110;SDS011;50401;48.188;11.566;2023-04-29T05:52:10;4.80;;;2.00;;
64110;SDS011;50401;48.188;11.566;2023-04-29T05:54:35;3.97;;;2.00;;
64110;SDS011;50401;48.188;11.566;2023-04-29T05:57:01;3.90;;;2.00;;
64110;SDS011;50401;48.188;11.566;2023-04-29T05:59:29;4.47;;;2.15;;
64110;SDS011;50401;48.188;11.566;2023-04-29T06:01:56;3.20;;;2.40;;
64110;SDS011;50401;48.188;11.566;2023-04-29T06:04:24;3.67;;;2.55;;
64110;SDS011;50401;48.188;11.566;2023-04-29T06:06:51;5.20;;;2.53;;
64110;SDS011;50401;48.188;11.566;2023-04-29T06:09:17;3.47;;;2.72;;
64110;SDS011;50401;48.188;11.566;2023-04-29T06:11:44;2.78;;;2.47;;
64110;SDS011;50401;48.188;11.566;2023-04-29T06:14:10;4.60;;;2.83;;
64110;SDS011;50401;48.188;11.566;2023-04-29T06:16:35;4.15;;;3.22;;
64110;SDS011;50401;48.188;11.566;2023-04-29T06:19:01;5.88;;;3.30;;
64110;SDS011;50401;48.188;11.566;2023-04-29T06:21:26;5.68;;;3.60;;
64110;SDS011;50401;48.188;11.566;2023-04-29T06:23:52;6.97;;;4.60;;
64110;SDS011;50401;48.188;11.566;2023-04-29T06:26:18;5.53;;;3.67;;
64110;SDS011;50401;48.188;11.566;2023-04-29T06:28:44;4.45;;;3.72;;
64110;SDS011;50401;48.188;11.566;2023-04-29T06:31:10;9.15;;;4.40;;
64110;SDS011;50401;48.188;11.566;2023-04-29T06:33:36;5.32;;;4.10;;
64110;SDS011;50401;48.188;11.566;2023-04-29T06:36:01;5.85;;;4.22;;
64110;SDS011;50401;48.188;11.566;2023-04-29T06:38:27;8.85;;;4.70;;
64110;SDS011;50401;48.188;11.566;2023-04-29T06:40:55;8.07;;;4.93;;
64110;SDS011;50401;48.188;11.566;2023-04-29T06:43:24;6.25;;;5.30;;
64110;SDS011;50401;48.188;11.566;2023-04-29T06:48:19;6.80;;;4.47;;
64110;SDS011;50401;48.188;11.566;2023-04-29T06:50:48;6.80;;;4.38;;
64110;SDS011;50401;48.188;11.566;2023-04-29T06:53:14;7.15;;;4.50;;
64110;SDS011;50401;48.188;11.566;2023-04-29T06:55:39;7.60;;;4.53;;
64110;SDS011;50401;48.188;11.566;2023-04-29T06:58:05;7.70;;;4.32;;
64110;SDS011;50401;48.188;11.566;2023-04-29T07:00:30;8.48;;;4.28;;
64110;SDS011;50401;48.188;11.566;2023-04-29T07:02:56;6.05;;;3.55;;
64110;SDS011;50401;48.188;11.566;2023-04-29T07:05:22;6.38;;;3.75;;
64110;SDS011;50401;48.188;11.566;2023-04-29T07:07:47;8.30;;;3.78;;
64110;SDS011;50401;48.188;11.566;2023-04-29T07:10:12;6.38;;;4.20;;
64110;SDS011;50401;48.188;11.566;2023-04-29T07:12:38;7.78;;;3.70;;
64110;SDS011;50401;48.188;11.566;2023-04-29T07:15:03;4.57;;;3.85;;
64110;SDS011;50401;48.188;11.566;2023-04-29T07:17:29;5.65;;;3.55;;
64110;SDS011;50401;48.188;11.566;2023-04-29T07:19:55;7.30;;;4.28;;
64110;SDS011;50401;48.188;11.566;2023-04-29T07:22:20;10.80;;;3.42;;
64110;SDS011;50401;48.188;11.566;2023-04-29T07:24:46;8.82;;;3.38;;
64110;SDS011;50401;48.188;11.566;2023-04-29T07:27:12;7.85;;;3.38;;
64110;SDS011;50401;48.188;11.566;2023-04-29T07:29:37;4.75;;;3.50;;
64110;SDS011;50401;48.188;11.566;2023-04-29T07:32:04;7.35;;;3.38;;
64110;SDS011;50401;48.188;11.566;2023-04-29T07:34:29;5.10;;;3.92;;
64110;SDS011;50401;48.188;11.566;2023-04-29T07:36:55;7.15;;;3.90;;
64110;SDS011;50401;48.188;11.566;2023-04-29T07:39:21;7.95;;;3.97;;
64110;SDS011;50401;48.188;11.566;2023-04-29T07:41:46;6.93;;;4.22;;
64110;SDS011;50401;48.188;11.566;2023-04-29T07:44:12;4.65;;;3.85;;
64110;SDS011;50401;48.188;11.566;2023-04-29T07:46:38;5.88;;;3.72;;
64110;SDS011;50401;48.188;11.566;2023-04-29T07:49:03;6.00;;;2.70;;
64110;SDS011;50401;48.188;11.566;2023-04-29T07:51:30;5.35;;;3.15;;
64110;SDS011;50401;48.188;11.566;2023-04-29T07:53:56;8.15;;;2.63;;
64110;SDS011;50401;48.188;11.566;2023-04-29T07:56:22;7.28;;;2.33;;
64110;SDS011;50401;48.188;11.566;2023-04-29T07:58:47;8.02;;;2.70;;
64110;SDS011;50401;48.188;11.566;2023-04-29T08:01:13;7.60;;;2.17;;
64110;SDS011;50401;48.188;11.566;2023-04-29T08:03:39;5.00;;;2.38;;
64110;SDS011;50401;48.188;11.566;2023-04-29T08:06:05;5.20;;;2.17;;
64110;SDS011;50401;48.188;11.566;2023-04-29T08:08:31;4.45;;;2.08;;
64110;SDS011;50401;48.188;11.566;2023-04-29T08:10:56;3.28;;;2.05;;
64110;SDS011;50401;48.188;11.566;2023-04-29T08:13:22;3.67;;;2.28;;
64110;SDS011;50401;48.188;11.566;2023-04-29T08:15:47;4.05;;;1.73;;
64110;SDS011;50401;48.188;11.566;2023-04-29T08:18:13;4.97;;;1.92;;
64110;SDS011;50401;48.188;11.566;2023-04-29T08:20:38;31.23;;;3.38;;
64110;SDS011;50401;48.188;11.566;2023-04-29T08:23:04;127.45;;;12.73;;
64110;SDS011;50401;48.188;11.566;2023-04-29T08:25:29;9.60;;;2.38;;
64110;SDS011;50401;48.188;11.566;2023-04-29T08:27:54;6.47;;;1.90;;
64110;SDS011;50401;48.188;11.566;2023-04-29T08:30:20;4.53;;;1.92;;
64110;SDS011;50401;48.188;11.566;2023-04-29T08:32:45;7.50;;;2.17;;
64110;SDS011;50401;48.188;11.566;2023-04-29T08:35:11;2.15;;;1.50;;
64110;SDS011;50401;48.188;11.566;2023-04-29T08:37:37;5.00;;;2.20;;
64110;SDS011;50401;48.188;11.566;2023-04-29T08:40:03;1.90;;;1.70;;
64110;SDS011;50401;48.188;11.566;2023-04-29T08:42:34;9.68;;;2.22;;
64110;SDS011;50401;48.188;11.566;2023-04-29T08:45:01;5.80;;;1.65;;
64110;SDS011;50401;48.188;11.566;2023-04-29T08:47:30;5.43;;;1.77;;
64110;SDS011;50401;48.188;11.566;2023-04-29T08:50:05;4.03;;;1.88;;
64110;SDS011;50401;48.188;11.566;2023-04-29T08:52:31;7.35;;;1.48;;
64110;SDS011;50401;48.188;11.566;2023-04-29T08:55:00;3.22;;;1.90;;
64110;SDS011;50401;48.188;11.566;2023-04-29T08:57:29;9.68;;;2.40;;
64110;SDS011;50401;48.188;11.566;2023-04-29T09:00:03;2.13;;;1.73;;
64110;SDS011;50401;48.188;11.566;2023-04-29T09:02:32;2.65;;;1.60;;
64110;SDS011;50401;48.188;11.566;2023-04-29T09:05:07;4.95;;;2.40;;
64110;SDS011;50401;48.188;11.566;2023-04-29T09:07:35;3.08;;;2.03;;
64110;SDS011;50401;48.188;11.566;2023-04-29T09:10:03;5.25;;;1.67;;
64110;SDS011;50401;48.188;11.566;2023-04-29T09:12:29;7.22;;;1.88;;
64110;SDS011;50401;48.188;11.566;2023-04-29T09:14:55;6.18;;;1.90;;
64110;SDS011;50401;48.188;11.566;2023-04-29T09:17:43;3.75;;;1.67;;
64110;SDS011;50401;48.188;11.566;2023-04-29T09:22:46;2.47;;;1.50;;
64110;SDS011;50401;48.188;11.566;2023-04-29T09:25:12;2.30;;;1.50;;
64110;SDS011;50401;48.188;11.566;2023-04-29T09:27:38;5.55;;;1.65;;
64110;SDS011;50401;48.188;11.566;2023-04-29T09:30:03;4.85;;;1.75;;
64110;SDS011;50401;48.188;11.566;2023-04-29T09:32:29;4.03;;;1.40;;
64110;SDS011;50401;48.188;11.566;2023-04-29T09:34:55;8.27;;;1.70;;
64110;SDS011;50401;48.188;11.566;2023-04-29T09:37:24;3.15;;;1.42;;
64110;SDS011;50401;48.188;11.566;2023-04-29T09:39:52;8.20;;;1.40;;
64110;SDS011;50401;48.188;11.566;2023-04-29T09:42:18;6.03;;;1.80;;
64110;SDS011;50401;48.188;11.566;2023-04-29T09:44:44;4.70;;;1.52;;
64110;SDS011;50401;48.188;11.566;2023-04-29T09:47:10;3.13;;;1.60;;
64110;SDS011;50401;48.188;11.566;2023-04-29T09:49:41;6.03;;;1.38;;
64110;SDS011;50401;48.188;11.566;2023-04-29T09:52:13;2.70;;;1.67;;
64110;SDS011;50401;48.188;11.566;2023-04-29T09:54:40;3.92;;;1.50;;
64110;SDS011;50401;48.188;11.566;2023-04-29T09:57:08;2.72;;;1.20;;
64110;SDS011;50401;48.188;11.566;2023-04-29T09:59:35;2.08;;;1.33;;
64110;SDS011;50401;48.188;11.566;2023-04-29T10:02:02;11.82;;;1.98;;
64110;SDS011;50401;48.188;11.566;2023-04-29T10:04:52;6.78;;;2.30;;
64110;SDS011;50401;48.188;11.566;2023-04-29T10:07:21;7.38;;;2.40;;
64110;SDS011;50401;48.188;11.566;2023-04-29T10:09:47;8.32;;;2.72;;
64110;SDS011;50401;48.188;11.566;2023-04-29T10:15:01;7.20;;;2.75;;
64110;SDS011;50401;48.188;11.566;2023-04-29T10:17:51;2.70;;;2.10;;
64110;SDS011;50401;48.188;11.566;2023-04-29T10:20:22;5.25;;;2.72;;
64110;SDS011;50401;48.188;11.566;2023-04-29T10:22:50;5.30;;;2.20;;
64110;SDS011;50401;48.188;11.566;2023-04-29T10:25:17;4.47;;;2.97;;
64110;SDS011;50401;48.188;11.566;2023-04-29T10:27:45;2.83;;;2.30;;
64110;SDS011;50401;48.188;11.566;2023-04-29T10:30:13;5.03;;;2.90;;
64110;SDS011;50401;48.188;11.566;2023-04-29T10:32:40;4.80;;;2.45;;
64110;SDS011;50401;48.188;11.566;2023-04-29T10:35:08;3.72;;;2.10;;
64110;SDS011;50401;48.188;11.566;2023-04-29T10:37:35;2.20;;;1.52;;
64110;SDS011;50401;48.188;11.566;2023-04-29T10:42:52;4.90;;;2.42;;
64110;SDS011;50401;48.188;11.566;2023-04-29T10:45:25;4.18;;;2.17;;
64110;SDS011;50401;48.188;11.566;2023-04-29T10:52:57;6.05;;;1.92;;
64110;SDS011;50401;48.188;11.566;2023-04-29T10:57:54;5.93;;;1.80;;
64110;SDS011;50401;48.188;11.566;2023-04-29T11:00:21;8.00;;;2.00;;
64110;SDS011;50401;48.188;11.566;2023-04-29T11:02:47;5.38;;;1.70;;
64110;SDS011;50401;48.188;11.566;2023-04-29T11:05:13;3.63;;;2.10;;
64110;SDS011;50401;48.188;11.566;2023-04-29T11:07:39;2.83;;;1.88;;
64110;SDS011;50401;48.188;11.566;2023-04-29T11:10:05;8.07;;;1.98;;
64110;SDS011;50401;48.188;11.566;2023-04-29T11:12:31;1.73;;;1.45;;
64110;SDS011;50401;48.188;11.566;2023-04-29T11:14:57;1.95;;;1.50;;
64110;SDS011;50401;48.188;11.566;2023-04-29T11:17:27;3.40;;;1.35;;
64110;SDS011;50401;48.188;11.566;2023-04-29T11:20:00;3.88;;;1.90;;
64110;SDS011;50401;48.188;11.566;2023-04-29T11:22:26;5.53;;;1.45;;
64110;SDS011;50401;48.188;11.566;2023-04-29T11:24:58;5.43;;;1.80;;
64110;SDS011;50401;48.188;11.566;2023-04-29T11:27:34;4.97;;;1.30;;
64110;SDS011;50401;48.188;11.566;2023-04-29T11:30:02;3.40;;;1.10;;
64110;SDS011;50401;48.188;11.566;2023-04-29T11:32:31;0.98;;;0.98;;
64110;SDS011;50401;48.188;11.566;2023-04-29T11:37:39;2.97;;;1.38;;
64110;SDS011;50401;48.188;11.566;2023-04-29T11:40:06;11.00;;;1.77;;
64110;SDS011;50401;48.188;11.566;2023-04-29T11:42:33;2.10;;;1.30;;
64110;SDS011;50401;48.188;11.566;2023-04-29T11:45:00;2.58;;;1.15;;
64110;SDS011;50401;48.188;11.566;2023-04-29T11:47:26;2.00;;;1.00;;
64110;SDS011;50401;48.188;11.566;2023-04-29T11:49:53;5.00;;;1.00;;
64110;SDS011;50401;48.188;11.566;2023-04-29T11:52:26;2.10;;;1.13;;
64110;SDS011;50401;48.188;11.566;2023-04-29T11:54:52;3.03;;;1.15;;
64110;SDS011;50401;48.188;11.566;2023-04-29T11:57:18;1.20;;;1.10;;
64110;SDS011;50401;48.188;11.566;2023-04-29T11:59:44;4.90;;;1.30;;
64110;SDS011;50401;48.188;11.566;2023-04-29T12:02:11;11.93;;;1.67;;
64110;SDS011;50401;48.188;11.566;2023-04-29T12:04:47;6.75;;;1.10;;
64110;SDS011;50401;48.188;11.566;2023-04-29T12:07:15;4.35;;;1.23;;
64110;SDS011;50401;48.188;11.566;2023-04-29T12:14:36;4.38;;;1.20;;
64110;SDS011;50401;48.188;11.566;2023-04-29T12:17:02;3.47;;;1.70;;
64110;SDS011;50401;48.188;11.566;2023-04-29T12:19:29;5.80;;;1.60;;
64110;SDS011;50401;48.188;11.566;2023-04-29T12:21:58;3.53;;;1.30;;
64110;SDS011;50401;48.188;11.566;2023-04-29T12:24:25;3.03;;;1.48;;
64110;SDS011;50401;48.188;11.566;2023-04-29T12:26:50;1.10;;;0.85;;
64110;SDS011;50401;48.188;11.566;2023-04-29T12:29:19;1.80;;;1.20;;
64110;SDS011;50401;48.188;11.566;2023-04-29T12:31:46;1.30;;;1.10;;
64110;SDS011;50401;48.188;11.566;2023-04-29T12:34:11;1.17;;;0.98;;
64110;SDS011;50401;48.188;11.566;2023-04-29T12:36:40;2.85;;;1.70;;
64110;SDS011;50401;48.188;11.566;2023-04-29T12:39:06;2.08;;;1.30;;
64110;SDS011;50401;48.188;11.566;2023-04-29T12:41:40;3.13;;;1.48;;
64110;SDS011;50401;48.188;11.566;2023-04-29T12:44:06;2.08;;;1.88;;
64110;SDS011;50401;48.188;11.566;2023-04-29T12:46:36;1.67;;;1.10;;
64110;SDS011;50401;48.188;11.566;2023-04-29T12:49:03;6.18;;;1.52;;
64110;SDS011;50401;48.188;11.566;2023-04-29T12:51:30;2.92;;;1.27;;
64110;SDS011;50401;48.188;11.566;2023-04-29T12:54:03;1.35;;;1.13;;
64110;SDS011;50401;48.188;11.566;2023-04-29T12:56:30;2.60;;;1.08;;
64110;SDS011;50401;48.188;11.566;2023-04-29T12:59:03;1.02;;;1.00;;
64110;SDS011;50401;48.188;11.566;2023-04-29T13:01:34;1.73;;;0.98;;
64110;SDS011;50401;48.188;11.566;2023-04-29T13:04:01;1.65;;;1.30;;
64110;SDS011;50401;48.188;11.566;2023-04-29T13:06:28;2.73;;;0.87;;
64110;SDS011;50401;48.188;11.566;2023-04-29T13:08:55;2.92;;;1.05;;
64110;SDS011;50401;48.188;11.566;2023-04-29T13:11:20;7.68;;;6.00;;
64110;SDS011;50401;48.188;11.566;2023-04-29T13:13:46;1.92;;;1.75;;
64110;SDS011;50401;48.188;11.566;2023-04-29T13:16:11;3.00;;;1.05;;
64110;SDS011;50401;48.188;11.566;2023-04-29T13:18:37;2.53;;;0.68;;
64110;SDS011;50401;48.188;11.566;2023-04-29T13:21:02;1.15;;;0.90;;
64110;SDS011;50401;48.188;11.566;2023-04-29T13:23:31;2.10;;;1.35;;
64110;SDS011;50401;48.188;11.566;2023-04-29T13:25:59;1.67;;;1.45;;
64110;SDS011;50401;48.188;11.566;2023-04-29T13:28:25;1.17;;;0.90;;
64110;SDS011;50401;48.188;11.566;2023-04-29T13:30:51;2.90;;;2.13;;
64110;SDS011;50401;48.188;11.566;2023-04-29T13:33:16;1.80;;;0.90;;
64110;SDS011;50401;48.188;11.566;2023-04-29T13:35:50;4.07;;;0.90;;
64110;SDS011;50401;48.188;11.566;2023-04-29T13:38:15;0.88;;;0.88;;
64110;SDS011;50401;48.188;11.566;2023-04-29T13:40:41;6.25;;;3.40;;
64110;SDS011;50401;48.188;11.566;2023-04-29T13:43:10;4.95;;;1.30;;
64110;SDS011;50401;48.188;11.566;2023-04-29T13:45:36;6.03;;;1.08;;
64110;SDS011;50401;48.188;11.566;2023-04-29T13:48:02;2.38;;;0.90;;
64110;SDS011;50401;48.188;11.566;2023-04-29T13:50:30;0.98;;;0.88;;
64110;SDS011;50401;48.188;11.566;2023-04-29T13:52:56;0.70;;;0.70;;
64110;SDS011;50401;48.188;11.566;2023-04-29T13:55:21;2.40;;;1.30;;
64110;SDS011;50401;48.188;11.566;2023-04-29T13:57:47;2.40;;;1.08;;
64110;SDS011;50401;48.188;11.566;2023-04-29T14:00:13;1.63;;;0.90;;
64110;SDS011;50401;48.188;11.566;2023-04-29T14:02:39;1.20;;;0.88;;
64110;SDS011;50401;48.188;11.566;2023-04-29T14:05:04;6.25;;;1.17;;
64110;SDS011;50401;48.188;11.566;2023-04-29T14:07:30;1.63;;;1.33;;
64110;SDS011;50401;48.188;11.566;2023-04-29T14:09:56;4.20;;;1.42;;
64110;SDS011;50401;48.188;11.566;2023-04-29T14:12:32;2.35;;;1.23;;
64110;SDS011;50401;48.188;11.566;2023-04-29T14:15:24;1.48;;;1.00;;
64110;SDS011;50401;48.188;11.566;2023-04-29T14:17:50;4.07;;;1.55;;
64110;SDS011;50401;48.188;11.566;2023-04-29T14:20:15;2.65;;;1.00;;
64110;SDS011;50401;48.188;11.566;2023-04-29T14:22:41;3.45;;;1.60;;
64110;SDS011;50401;48.188;11.566;2023-04-29T14:25:06;2.72;;;1.20;;
64110;SDS011;50401;48.188;11.566;2023-04-29T14:27:32;4.32;;;1.48;;
64110;SDS011;50401;48.188;11.566;2023-04-29T14:29:59;4.25;;;1.80;;
64110;SDS011;50401;48.188;11.566;2023-04-29T14:32:28;2.25;;;1.15;;
64110;SDS011;50401;48.188;11.566;2023-04-29T14:34:56;2.10;;;1.33;;
64110;SDS011;50401;48.188;11.566;2023-04-29T14:37:25;1.92;;;1.15;;
64110;SDS011;50401;48.188;11.566;2023-04-29T14:39:51;2.90;;;1.23;;
64110;SDS011;50401;48.188;11.566;2023-04-29T14:45:02;3.60;;;1.13;;
64110;SDS011;50401;48.188;11.566;2023-04-29T14:47:27;2.20;;;0.82;;
64110;SDS011;50401;48.188;11.566;2023-04-29T14:49:53;1.70;;;1.42;;
64110;SDS011;50401;48.188;11.566;2023-04-29T14:52:22;2.58;;;0.90;;
64110;SDS011;50401;48.188;11.566;2023-04-29T14:54:47;1.73;;;1.20;;
64110;SDS011;50401;48.188;11.566;2023-04-29T14:57:13;3.28;;;1.08;;
64110;SDS011;50401;48.188;11.566;2023-04-29T14:59:39;1.48;;;1.20;;
64110;SDS011;50401;48.188;11.566;2023-04-29T15:02:05;1.65;;;0.90;;
64110;SDS011;50401;48.188;11.566;2023-04-29T15:04:30;1.58;;;1.15;;
64110;SDS011;50401;48.188;11.566;2023-04-29T15:06:56;1.75;;;1.08;;
64110;SDS011;50401;48.188;11.566;2023-04-29T15:09:22;3.03;;;1.50;;